sensor_id;sensor_type;location;lat;lon;timestamp;P1;durP1;ratioP1;P2;durP2;ratioP2
11590;SDS011;5851;54.050;9.974;2024-01-15T00:00:15;9.55;;;2.80;;
11590;SDS011;5851;54.050;9.974;2024-01-15T00:02:43;7.18;;;2.35;;
11590;SDS011;5851;54.050;9.974;2024-01-15T00:05:11;6.70;;;2.00;;
11590;SDS011;5851;54.050;9.974;2024-01-15T00:07:38;7.07;;;2.20;;
11590;SDS011;5851;54.050;9.974;2024-01-15T00:10:05;8.70;;;2.33;;
11590;SDS011;5851;54.050;9.974;2024-01-15T00:12:32;6.40;;;2.30;;
11590;SDS011;5851;54.050;9.974;2024-01-15T00:14:59;7.70;;;2.33;;
11590;SDS011;5851;54.050;9.974;2024-01-15T00:17:26;7.30;;;2.00;;
11590;SDS011;5851;54.050;9.974;2024-01-15T00:19:53;8.65;;;2.10;;
11590;SDS011;5851;54.050;9.974;2024-01-15T00:22:23;7.00;;;2.47;;
11590;SDS011;5851;54.050;9.974;2024-01-15T00:24:51;8.32;;;2.50;;
11590;SDS011;5851;54.050;9.974;2024-01-15T00:27:18;6.03;;;2.15;;
11590;SDS011;5851;54.050;9.974;2024-01-15T00:29:45;7.90;;;2.40;;
11590;SDS011;5851;54.050;9.974;2024-01-15T00:32:12;9.60;;;2.10;;
11590;SDS011;5851;54.050;9.974;2024-01-15T00:34:39;10.98;;;2.38;;
11590;SDS011;5851;54.050;9.974;2024-01-15T00:37:06;9.32;;;2.25;;
11590;SDS011;5851;54.050;9.974;2024-01-15T00:39:34;5.97;;;2.00;;
11590;SDS011;5851;54.050;9.974;2024-01-15T00:42:01;9.15;;;2.40;;
11590;SDS011;5851;54.050;9.974;2024-01-15T00:44:28;6.00;;;2.30;;
11590;SDS011;5851;54.050;9.974;2024-01-15T00:46:55;6.25;;;1.95;;
11590;SDS011;5851;54.050;9.974;2024-01-15T00:49:22;5.30;;;2.00;;
11590;SDS011;5851;54.050;9.974;2024-01-15T00:51:49;5.25;;;2.03;;
11590;SDS011;5851;54.050;9.974;2024-01-15T00:54:16;7.05;;;2.28;;
11590;SDS011;5851;54.050;9.974;2024-01-15T00:56:44;6.93;;;2.38;;
11590;SDS011;5851;54.050;9.974;2024-01-15T00:59:12;12.77;;;2.92;;
11590;SDS011;5851;54.050;9.974;2024-01-15T01:01:40;8.15;;;3.17;;
11590;SDS011;5851;54.050;9.974;2024-01-15T01:04:08;10.25;;;3.50;;
11590;SDS011;5851;54.050;9.974;2024-01-15T01:06:35;7.80;;;2.85;;
11590;SDS011;5851;54.050;9.974;2024-01-15T01:09:02;9.73;;;3.30;;
11590;SDS011;5851;54.050;9.974;2024-01-15T01:11:29;11.40;;;3.03;;
11590;SDS011;5851;54.050;9.974;2024-01-15T01:13:57;11.23;;;3.40;;
11590;SDS011;5851;54.050;9.974;2024-01-15T01:16:25;11.35;;;3.05;;
11590;SDS011;5851;54.050;9.974;2024-01-15T01:18:52;13.02;;;3.10;;
11590;SDS011;5851;54.050;9.974;2024-01-15T01:21:19;12.40;;;3.25;;
11590;SDS011;5851;54.050;9.974;2024-01-15T01:23:46;10.75;;;3.63;;
11590;SDS011;5851;54.050;9.974;2024-01-15T01:26:15;12.57;;;3.50;;
11590;SDS011;5851;54.050;9.974;2024-01-15T01:28:42;9.88;;;3.17;;
11590;SDS011;5851;54.050;9.974;2024-01-15T01:31:10;10.00;;;3.10;;
11590;SDS011;5851;54.050;9.974;2024-01-15T01:33:38;13.75;;;3.72;;
11590;SDS011;5851;54.050;9.974;2024-01-15T01:36:07;11.53;;;3.27;;
11590;SDS011;5851;54.050;9.974;2024-01-15T01:38:34;9.95;;;3.22;;
11590;SDS011;5851;54.050;9.974;2024-01-15T01:41:01;10.68;;;3.08;;
11590;SDS011;5851;54.050;9.974;2024-01-15T01:43:28;12.18;;;3.28;;
11590;SDS011;5851;54.050;9.974;2024-01-15T01:45:56;10.27;;;3.37;;
11590;SDS011;5851;54.050;9.974;2024-01-15T01:48:25;11.77;;;3.30;;
11590;SDS011;5851;54.050;9.974;2024-01-15T01:50:52;9.40;;;3.22;;
11590;SDS011;5851;54.050;9.974;2024-01-15T01:53:21;11.63;;;3.80;;
11590;SDS011;5851;54.050;9.974;2024-01-15T01:55:49;10.68;;;3.13;;
11590;SDS011;5851;54.050;9.974;2024-01-15T01:58:17;11.07;;;3.65;;
11590;SDS011;5851;54.050;9.974;2024-01-15T02:00:45;14.52;;;3.50;;
11590;SDS011;5851;54.050;9.974;2024-01-15T02:03:13;14.52;;;3.80;;
11590;SDS011;5851;54.050;9.974;2024-01-15T02:05:42;19.40;;;4.17;;
11590;SDS011;5851;54.050;9.974;2024-01-15T02:08:10;13.77;;;3.28;;
11590;SDS011;5851;54.050;9.974;2024-01-15T02:10:37;11.77;;;3.50;;
11590;SDS011;5851;54.050;9.974;2024-01-15T02:13:04;15.98;;;3.67;;
11590;SDS011;5851;54.050;9.974;2024-01-15T02:15:31;15.38;;;4.20;;
11590;SDS011;5851;54.050;9.974;2024-01-15T02:17:59;14.63;;;3.70;;
11590;SDS011;5851;54.050;9.974;2024-01-15T02:20:26;13.35;;;3.80;;
11590;SDS011;5851;54.050;9.974;2024-01-15T02:25:31;14.63;;;3.65;;
11590;SDS011;5851;54.050;9.974;2024-01-15T02:27:58;13.77;;;3.63;;
11590;SDS011;5851;54.050;9.974;2024-01-15T02:30:25;14.40;;;3.95;;
11590;SDS011;5851;54.050;9.974;2024-01-15T02:32:54;14.40;;;3.83;;
11590;SDS011;5851;54.050;9.974;2024-01-15T02:35:21;14.10;;;4.03;;
11590;SDS011;5851;54.050;9.974;2024-01-15T02:37:48;14.80;;;4.20;;
11590;SDS011;5851;54.050;9.974;2024-01-15T02:40:16;14.32;;;3.88;;
11590;SDS011;5851;54.050;9.974;2024-01-15T02:42:43;14.00;;;3.87;;
11590;SDS011;5851;54.050;9.974;2024-01-15T02:45:10;11.30;;;3.30;;
11590;SDS011;5851;54.050;9.974;2024-01-15T02:47:37;14.57;;;3.58;;
11590;SDS011;5851;54.050;9.974;2024-01-15T02:50:04;12.70;;;3.30;;
11590;SDS011;5851;54.050;9.974;2024-01-15T02:52:32;10.98;;;3.47;;
11590;SDS011;5851;54.050;9.974;2024-01-15T02:54:59;9.27;;;3.47;;
11590;SDS011;5851;54.050;9.974;2024-01-15T02:57:27;12.23;;;3.33;;
11590;SDS011;5851;54.050;9.974;2024-01-15T02:59:54;9.90;;;3.20;;
11590;SDS011;5851;54.050;9.974;2024-01-15T03:02:21;9.50;;;2.97;;
11590;SDS011;5851;54.050;9.974;2024-01-15T03:04:48;12.88;;;3.38;;
11590;SDS011;5851;54.050;9.974;2024-01-15T03:07:15;9.07;;;2.83;;
11590;SDS011;5851;54.050;9.974;2024-01-15T03:09:42;8.80;;;2.92;;
11590;SDS011;5851;54.050;9.974;2024-01-15T03:12:09;9.68;;;2.72;;
11590;SDS011;5851;54.050;9.974;2024-01-15T03:14:38;8.88;;;2.88;;
11590;SDS011;5851;54.050;9.974;2024-01-15T03:17:05;12.30;;;3.40;;
11590;SDS011;5851;54.050;9.974;2024-01-15T03:19:34;9.68;;;3.00;;
11590;SDS011;5851;54.050;9.974;2024-01-15T03:22:01;11.70;;;2.90;;
11590;SDS011;5851;54.050;9.974;2024-01-15T03:24:28;10.57;;;2.80;;
11590;SDS011;5851;54.050;9.974;2024-01-15T03:26:55;9.90;;;2.80;;
11590;SDS011;5851;54.050;9.974;2024-01-15T03:29:23;9.07;;;3.08;;
11590;SDS011;5851;54.050;9.974;2024-01-15T03:31:51;8.45;;;3.08;;
11590;SDS011;5851;54.050;9.974;2024-01-15T03:34:18;12.63;;;3.30;;
11590;SDS011;5851;54.050;9.974;2024-01-15T03:36:45;9.50;;;3.15;;
11590;SDS011;5851;54.050;9.974;2024-01-15T03:39:12;9.50;;;3.30;;
11590;SDS011;5851;54.050;9.974;2024-01-15T03:41:39;11.38;;;3.75;;
11590;SDS011;5851;54.050;9.974;2024-01-15T03:44:06;12.30;;;3.20;;
11590;SDS011;5851;54.050;9.974;2024-01-15T03:46:33;11.95;;;3.50;;
11590;SDS011;5851;54.050;9.974;2024-01-15T03:49:01;13.60;;;3.00;;
11590;SDS011;5851;54.050;9.974;2024-01-15T03:51:28;10.68;;;3.25;;
11590;SDS011;5851;54.050;9.974;2024-01-15T03:53:55;10.00;;;3.00;;
11590;SDS011;5851;54.050;9.974;2024-01-15T03:56:22;11.27;;;3.40;;
11590;SDS011;5851;54.050;9.974;2024-01-15T03:58:49;13.35;;;3.60;;
11590;SDS011;5851;54.050;9.974;2024-01-15T04:01:16;11.30;;;3.50;;
11590;SDS011;5851;54.050;9.974;2024-01-15T04:03:42;11.27;;;3.30;;
11590;SDS011;5851;54.050;9.974;2024-01-15T04:06:11;10.80;;;3.50;;
11590;SDS011;5851;54.050;9.974;2024-01-15T04:08:38;12.55;;;3.33;;
11590;SDS011;5851;54.050;9.974;2024-01-15T04:11:05;13.23;;;3.60;;
11590;SDS011;5851;54.050;9.974;2024-01-15T04:13:32;12.63;;;3.92;;
11590;SDS011;5851;54.050;9.974;2024-01-15T04:15:59;15.43;;;3.58;;
11590;SDS011;5851;54.050;9.974;2024-01-15T04:18:26;16.67;;;3.80;;
11590;SDS011;5851;54.050;9.974;2024-01-15T04:20:53;13.73;;;3.40;;
11590;SDS011;5851;54.050;9.974;2024-01-15T04:23:21;14.57;;;3.90;;
11590;SDS011;5851;54.050;9.974;2024-01-15T04:25:48;12.50;;;3.50;;
11590;SDS011;5851;54.050;9.974;2024-01-15T04:28:15;13.07;;;4.40;;
11590;SDS011;5851;54.050;9.974;2024-01-15T04:30:42;14.25;;;3.60;;
11590;SDS011;5851;54.050;9.974;2024-01-15T04:33:09;11.75;;;3.60;;
11590;SDS011;5851;54.050;9.974;2024-01-15T04:35:37;16.90;;;4.20;;
11590;SDS011;5851;54.050;9.974;2024-01-15T04:38:04;15.48;;;3.88;;
11590;SDS011;5851;54.050;9.974;2024-01-15T04:40:32;15.30;;;4.20;;
11590;SDS011;5851;54.050;9.974;2024-01-15T04:42:59;15.07;;;4.10;;
11590;SDS011;5851;54.050;9.974;2024-01-15T04:45:26;16.40;;;4.32;;
11590;SDS011;5851;54.050;9.974;2024-01-15T04:47:53;14.82;;;3.38;;
11590;SDS011;5851;54.050;9.974;2024-01-15T04:50:23;17.23;;;4.13;;
11590;SDS011;5851;54.050;9.974;2024-01-15T04:52:50;14.70;;;3.80;;
11590;SDS011;5851;54.050;9.974;2024-01-15T04:55:17;18.70;;;4.50;;
11590;SDS011;5851;54.050;9.974;2024-01-15T04:57:45;15.70;;;4.18;;
11590;SDS011;5851;54.050;9.974;2024-01-15T05:00:15;16.77;;;4.30;;
11590;SDS011;5851;54.050;9.974;2024-01-15T05:02:42;12.35;;;4.30;;
11590;SDS011;5851;54.050;9.974;2024-01-15T05:05:09;16.40;;;4.18;;
11590;SDS011;5851;54.050;9.974;2024-01-15T05:07:36;14.32;;;4.10;;
11590;SDS011;5851;54.050;9.974;2024-01-15T05:10:03;11.63;;;3.92;;
11590;SDS011;5851;54.050;9.974;2024-01-15T05:12:32;13.00;;;3.78;;
11590;SDS011;5851;54.050;9.974;2024-01-15T05:15:00;13.32;;;3.67;;
11590;SDS011;5851;54.050;9.974;2024-01-15T05:17:27;14.57;;;4.10;;
11590;SDS011;5851;54.050;9.974;2024-01-15T05:19:54;14.75;;;4.20;;
11590;SDS011;5851;54.050;9.974;2024-01-15T05:22:21;12.68;;;3.47;;
11590;SDS011;5851;54.050;9.974;2024-01-15T05:24:49;15.13;;;4.27;;
11590;SDS011;5851;54.050;9.974;2024-01-15T05:27:16;12.18;;;3.60;;
11590;SDS011;5851;54.050;9.974;2024-01-15T05:29:43;13.65;;;3.97;;
11590;SDS011;5851;54.050;9.974;2024-01-15T05:32:12;14.37;;;4.00;;
11590;SDS011;5851;54.050;9.974;2024-01-15T05:34:39;11.48;;;3.67;;
11590;SDS011;5851;54.050;9.974;2024-01-15T05:37:05;17.83;;;4.53;;
11590;SDS011;5851;54.050;9.974;2024-01-15T05:39:32;13.43;;;3.70;;
11590;SDS011;5851;54.050;9.974;2024-01-15T05:41:59;15.75;;;4.45;;
11590;SDS011;5851;54.050;9.974;2024-01-15T05:44:26;13.43;;;4.40;;
11590;SDS011;5851;54.050;9.974;2024-01-15T05:46:53;12.82;;;3.47;;
11590;SDS011;5851;54.050;9.974;2024-01-15T05:49:22;11.13;;;3.88;;
11590;SDS011;5851;54.050;9.974;2024-01-15T05:51:49;14.98;;;4.25;;
11590;SDS011;5851;54.050;9.974;2024-01-15T05:54:17;13.23;;;4.07;;
11590;SDS011;5851;54.050;9.974;2024-01-15T05:56:45;16.25;;;4.20;;
11590;SDS011;5851;54.050;9.974;2024-01-15T05:59:12;13.23;;;3.78;;
11590;SDS011;5851;54.050;9.974;2024-01-15T06:01:39;13.38;;;4.22;;
11590;SDS011;5851;54.050;9.974;2024-01-15T06:04:05;13.05;;;3.90;;
11590;SDS011;5851;54.050;9.974;2024-01-15T06:06:34;16.67;;;4.00;;
11590;SDS011;5851;54.050;9.974;2024-01-15T06:09:01;13.27;;;3.70;;
11590;SDS011;5851;54.050;9.974;2024-01-15T06:11:30;13.60;;;4.03;;
11590;SDS011;5851;54.050;9.974;2024-01-15T06:13:57;15.40;;;4.60;;
11590;SDS011;5851;54.050;9.974;2024-01-15T06:16:25;13.25;;;4.15;;
11590;SDS011;5851;54.050;9.974;2024-01-15T06:18:52;13.48;;;4.75;;
11590;SDS011;5851;54.050;9.974;2024-01-15T06:21:19;15.25;;;6.40;;
11590;SDS011;5851;54.050;9.974;2024-01-15T06:23:47;15.10;;;4.43;;
11590;SDS011;5851;54.050;9.974;2024-01-15T06:26:16;11.27;;;3.10;;
11590;SDS011;5851;54.050;9.974;2024-01-15T06:28:43;12.88;;;3.72;;
11590;SDS011;5851;54.050;9.974;2024-01-15T06:31:10;14.60;;;4.03;;
11590;SDS011;5851;54.050;9.974;2024-01-15T06:33:37;12.90;;;3.90;;
11590;SDS011;5851;54.050;9.974;2024-01-15T06:36:04;12.77;;;3.80;;
11590;SDS011;5851;54.050;9.974;2024-01-15T06:38:32;13.32;;;3.78;;
11590;SDS011;5851;54.050;9.974;2024-01-15T06:41:00;13.57;;;3.80;;
11590;SDS011;5851;54.050;9.974;2024-01-15T06:43:27;14.88;;;3.70;;
11590;SDS011;5851;54.050;9.974;2024-01-15T06:45:54;16.27;;;4.27;;
11590;SDS011;5851;54.050;9.974;2024-01-15T06:48:21;11.13;;;3.45;;
11590;SDS011;5851;54.050;9.974;2024-01-15T06:50:48;12.60;;;4.00;;
11590;SDS011;5851;54.050;9.974;2024-01-15T06:53:15;14.40;;;3.77;;
11590;SDS011;5851;54.050;9.974;2024-01-15T06:55:42;17.15;;;3.88;;
11590;SDS011;5851;54.050;9.974;2024-01-15T06:58:10;12.70;;;4.10;;
11590;SDS011;5851;54.050;9.974;2024-01-15T07:00:37;11.95;;;4.03;;
11590;SDS011;5851;54.050;9.974;2024-01-15T07:03:05;15.65;;;3.90;;
11590;SDS011;5851;54.050;9.974;2024-01-15T07:05:32;15.10;;;4.30;;
11590;SDS011;5851;54.050;9.974;2024-01-15T07:07:59;13.40;;;3.83;;
11590;SDS011;5851;54.050;9.974;2024-01-15T07:10:26;14.48;;;3.97;;
11590;SDS011;5851;54.050;9.974;2024-01-15T07:12:53;16.43;;;3.87;;
11590;SDS011;5851;54.050;9.974;2024-01-15T07:15:21;14.27;;;4.57;;
11590;SDS011;5851;54.050;9.974;2024-01-15T07:17:49;16.10;;;4.28;;
11590;SDS011;5851;54.050;9.974;2024-01-15T07:20:16;13.63;;;4.70;;
11590;SDS011;5851;54.050;9.974;2024-01-15T07:22:44;18.13;;;3.88;;
11590;SDS011;5851;54.050;9.974;2024-01-15T07:25:11;13.30;;;3.50;;
11590;SDS011;5851;54.050;9.974;2024-01-15T07:27:39;14.30;;;4.68;;
11590;SDS011;5851;54.050;9.974;2024-01-15T07:30:09;13.90;;;4.18;;
11590;SDS011;5851;54.050;9.974;2024-01-15T07:32:38;14.38;;;3.78;;
11590;SDS011;5851;54.050;9.974;2024-01-15T07:35:06;13.30;;;3.95;;
11590;SDS011;5851;54.050;9.974;2024-01-15T07:37:33;10.73;;;3.40;;
11590;SDS011;5851;54.050;9.974;2024-01-15T07:40:00;15.60;;;3.67;;
11590;SDS011;5851;54.050;9.974;2024-01-15T07:42:29;14.63;;;3.58;;
11590;SDS011;5851;54.050;9.974;2024-01-15T07:44:56;12.93;;;3.63;;
11590;SDS011;5851;54.050;9.974;2024-01-15T07:47:23;11.50;;;3.38;;
11590;SDS011;5851;54.050;9.974;2024-01-15T07:49:52;14.65;;;3.42;;
11590;SDS011;5851;54.050;9.974;2024-01-15T07:52:19;13.73;;;3.50;;
11590;SDS011;5851;54.050;9.974;2024-01-15T07:54:46;13.65;;;3.58;;
11590;SDS011;5851;54.050;9.974;2024-01-15T07:57:13;11.40;;;3.20;;
11590;SDS011;5851;54.050;9.974;2024-01-15T07:59:40;11.93;;;3.57;;
11590;SDS011;5851;54.050;9.974;2024-01-15T08:02:07;12.27;;;3.58;;
11590;SDS011;5851;54.050;9.974;2024-01-15T08:04:36;9.30;;;3.58;;
11590;SDS011;5851;54.050;9.974;2024-01-15T08:07:04;8.27;;;2.75;;
11590;SDS011;5851;54.050;9.974;2024-01-15T08:09:32;12.05;;;3.20;;
11590;SDS011;5851;54.050;9.974;2024-01-15T08:11:59;8.07;;;3.03;;
11590;SDS011;5851;54.050;9.974;2024-01-15T08:14:26;13.77;;;3.42;;
11590;SDS011;5851;54.050;9.974;2024-01-15T08:16:53;9.85;;;2.83;;
11590;SDS011;5851;54.050;9.974;2024-01-15T08:19:20;12.27;;;3.30;;
11590;SDS011;5851;54.050;9.974;2024-01-15T08:21:47;10.17;;;3.57;;
11590;SDS011;5851;54.050;9.974;2024-01-15T08:24:15;11.85;;;3.25;;
11590;SDS011;5851;54.050;9.974;2024-01-15T08:26:42;14.80;;;3.45;;
11590;SDS011;5851;54.050;9.974;2024-01-15T08:29:10;9.30;;;3.17;;
11590;SDS011;5851;54.050;9.974;2024-01-15T08:31:37;10.97;;;3.03;;
11590;SDS011;5851;54.050;9.974;2024-01-15T08:34:04;10.77;;;2.63;;
11590;SDS011;5851;54.050;9.974;2024-01-15T08:36:31;12.63;;;4.63;;
11590;SDS011;5851;54.050;9.974;2024-01-15T08:39:00;12.38;;;3.55;;
11590;SDS011;5851;54.050;9.974;2024-01-15T08:41:30;11.20;;;3.30;;
11590;SDS011;5851;54.050;9.974;2024-01-15T08:43:57;11.43;;;4.32;;
11590;SDS011;5851;54.050;9.974;2024-01-15T08:46:24;11.77;;;3.28;;
11590;SDS011;5851;54.050;9.974;2024-01-15T08:48:51;10.32;;;2.90;;
11590;SDS011;5851;54.050;9.974;2024-01-15T08:51:18;9.82;;;3.58;;
11590;SDS011;5851;54.050;9.974;2024-01-15T08:53:45;12.70;;;3.85;;
11590;SDS011;5851;54.050;9.974;2024-01-15T08:56:12;12.15;;;4.30;;
11590;SDS011;5851;54.050;9.974;2024-01-15T08:58:40;10.47;;;3.10;;
11590;SDS011;5851;54.050;9.974;2024-01-15T09:01:07;10.93;;;5.05;;
11590;SDS011;5851;54.050;9.974;2024-01-15T09:03:34;9.40;;;2.80;;
11590;SDS011;5851;54.050;9.974;2024-01-15T09:06:02;9.65;;;3.90;;
11590;SDS011;5851;54.050;9.974;2024-01-15T09:08:29;8.32;;;2.90;;
11590;SDS011;5851;54.050;9.974;2024-01-15T09:10:56;9.75;;;3.42;;
11590;SDS011;5851;54.050;9.974;2024-01-15T09:13:23;10.10;;;3.80;;
11590;SDS011;5851;54.050;9.974;2024-01-15T09:15:51;10.52;;;3.22;;
11590;SDS011;5851;54.050;9.974;2024-01-15T09:18:18;8.25;;;3.10;;
11590;SDS011;5851;54.050;9.974;2024-01-15T09:20:45;9.60;;;3.20;;
11590;SDS011;5851;54.050;9.974;2024-01-15T09:23:12;9.07;;;3.65;;
11590;SDS011;5851;54.050;9.974;2024-01-15T09:25:39;8.27;;;3.27;;
11590;SDS011;5851;54.050;9.974;2024-01-15T09:28:06;9.90;;;3.83;;
11590;SDS011;5851;54.050;9.974;2024-01-15T09:30:33;7.82;;;3.05;;
11590;SDS011;5851;54.050;9.974;2024-01-15T09:33:01;7.20;;;2.70;;
11590;SDS011;5851;54.050;9.974;2024-01-15T09:35:28;5.65;;;2.53;;
11590;SDS011;5851;54.050;9.974;2024-01-15T09:37:55;6.23;;;2.57;;
11590;SDS011;5851;54.050;9.974;2024-01-15T09:40:22;5.20;;;2.50;;
11590;SDS011;5851;54.050;9.974;2024-01-15T09:42:51;23.17;;;10.10;;
11590;SDS011;5851;54.050;9.974;2024-01-15T09:45:18;16.63;;;6.50;;
11590;SDS011;5851;54.050;9.974;2024-01-15T09:47:46;9.00;;;3.80;;
11590;SDS011;5851;54.050;9.974;2024-01-15T09:50:14;5.97;;;2.15;;
11590;SDS011;5851;54.050;9.974;2024-01-15T09:52:42;8.77;;;3.85;;
11590;SDS011;5851;54.050;9.974;2024-01-15T09:55:09;11.05;;;4.80;;
11590;SDS011;5851;54.050;9.974;2024-01-15T09:57:37;9.48;;;5.03;;
11590;SDS011;5851;54.050;9.974;2024-01-15T10:00:05;11.63;;;4.40;;
11590;SDS011;5851;54.050;9.974;2024-01-15T10:02:35;20.83;;;9.70;;
11590;SDS011;5851;54.050;9.974;2024-01-15T10:05:03;6.82;;;3.70;;
11590;SDS011;5851;54.050;9.974;2024-01-15T10:07:31;6.88;;;3.40;;
11590;SDS011;5851;54.050;9.974;2024-01-15T10:10:01;4.90;;;2.28;;
11590;SDS011;5851;54.050;9.974;2024-01-15T10:12:28;7.93;;;3.10;;
11590;SDS011;5851;54.050;9.974;2024-01-15T10:14:55;7.35;;;3.70;;
11590;SDS011;5851;54.050;9.974;2024-01-15T10:17:23;5.57;;;2.78;;
11590;SDS011;5851;54.050;9.974;2024-01-15T10:19:52;6.50;;;3.97;;
11590;SDS011;5851;54.050;9.974;2024-01-15T10:22:19;3.55;;;1.80;;
11590;SDS011;5851;54.050;9.974;2024-01-15T10:24:47;3.58;;;2.10;;
11590;SDS011;5851;54.050;9.974;2024-01-15T10:27:14;4.55;;;2.40;;
11590;SDS011;5851;54.050;9.974;2024-01-15T10:29:42;6.20;;;4.10;;
11590;SDS011;5851;54.050;9.974;2024-01-15T10:32:09;7.50;;;3.50;;
11590;SDS011;5851;54.050;9.974;2024-01-15T10:34:37;6.70;;;3.13;;
11590;SDS011;5851;54.050;9.974;2024-01-15T10:37:07;4.15;;;2.10;;
11590;SDS011;5851;54.050;9.974;2024-01-15T10:39:34;4.90;;;2.40;;
11590;SDS011;5851;54.050;9.974;2024-01-15T10:42:03;4.60;;;2.22;;
11590;SDS011;5851;54.050;9.974;2024-01-15T10:44:31;4.38;;;2.05;;
11590;SDS011;5851;54.050;9.974;2024-01-15T10:46:58;4.22;;;2.30;;
11590;SDS011;5851;54.050;9.974;2024-01-15T10:49:25;4.03;;;2.15;;
11590;SDS011;5851;54.050;9.974;2024-01-15T10:51:54;5.20;;;2.00;;
11590;SDS011;5851;54.050;9.974;2024-01-15T10:54:22;6.03;;;2.92;;
11590;SDS011;5851;54.050;9.974;2024-01-15T10:56:49;4.45;;;2.83;;
11590;SDS011;5851;54.050;9.974;2024-01-15T10:59:20;3.83;;;1.98;;
11590;SDS011;5851;54.050;9.974;2024-01-15T11:01:48;4.23;;;2.07;;
11590;SDS011;5851;54.050;9.974;2024-01-15T11:04:18;4.93;;;2.15;;
11590;SDS011;5851;54.050;9.974;2024-01-15T11:06:47;5.07;;;2.22;;
11590;SDS011;5851;54.050;9.974;2024-01-15T11:09:16;3.42;;;2.03;;
11590;SDS011;5851;54.050;9.974;2024-01-15T11:11:44;11.13;;;5.50;;
11590;SDS011;5851;54.050;9.974;2024-01-15T11:14:19;10.15;;;5.88;;
11590;SDS011;5851;54.050;9.974;2024-01-15T11:17:00;9.68;;;5.25;;
11590;SDS011;5851;54.050;9.974;2024-01-15T11:19:35;6.05;;;3.75;;
11590;SDS011;5851;54.050;9.974;2024-01-15T11:22:03;11.75;;;6.32;;
11590;SDS011;5851;54.050;9.974;2024-01-15T11:24:37;6.45;;;3.15;;
11590;SDS011;5851;54.050;9.974;2024-01-15T11:27:05;5.15;;;3.00;;
11590;SDS011;5851;54.050;9.974;2024-01-15T11:29:35;10.48;;;6.32;;
11590;SDS011;5851;54.050;9.974;2024-01-15T11:32:03;7.77;;;3.80;;
11590;SDS011;5851;54.050;9.974;2024-01-15T11:34:54;7.53;;;3.13;;
11590;SDS011;5851;54.050;9.974;2024-01-15T11:37:26;5.28;;;2.83;;
11590;SDS011;5851;54.050;9.974;2024-01-15T11:39:54;3.70;;;1.73;;
11590;SDS011;5851;54.050;9.974;2024-01-15T11:42:22;5.70;;;2.67;;
11590;SDS011;5851;54.050;9.974;2024-01-15T11:44:50;7.23;;;3.73;;
11590;SDS011;5851;54.050;9.974;2024-01-15T11:47:23;8.52;;;4.57;;
11590;SDS011;5851;54.050;9.974;2024-01-15T11:50:13;7.47;;;3.58;;
11590;SDS011;5851;54.050;9.974;2024-01-15T11:52:41;10.30;;;5.78;;
11590;SDS011;5851;54.050;9.974;2024-01-15T11:55:26;3.83;;;2.03;;
11590;SDS011;5851;54.050;9.974;2024-01-15T11:57:55;4.78;;;2.50;;
11590;SDS011;5851;54.050;9.974;2024-01-15T12:00:28;3.22;;;2.17;;
11590;SDS011;5851;54.050;9.974;2024-01-15T12:02:55;4.43;;;2.20;;
11590;SDS011;5851;54.050;9.974;2024-01-15T12:05:29;5.53;;;2.85;;
11590;SDS011;5851;54.050;9.974;2024-01-15T12:07:58;5.40;;;3.05;;
11590;SDS011;5851;54.050;9.974;2024-01-15T12:10:28;6.10;;;2.58;;
11590;SDS011;5851;54.050;9.974;2024-01-15T12:15:22;5.53;;;3.17;;
11590;SDS011;5851;54.050;9.974;2024-01-15T12:17:51;6.75;;;3.20;;
11590;SDS011;5851;54.050;9.974;2024-01-15T12:20:18;4.18;;;2.53;;
11590;SDS011;5851;54.050;9.974;2024-01-15T12:22:45;6.35;;;2.40;;
11590;SDS011;5851;54.050;9.974;2024-01-15T12:25:12;4.60;;;2.03;;
11590;SDS011;5851;54.050;9.974;2024-01-15T12:27:40;5.28;;;2.40;;
11590;SDS011;5851;54.050;9.974;2024-01-15T12:30:10;4.82;;;2.13;;
11590;SDS011;5851;54.050;9.974;2024-01-15T12:32:39;9.52;;;4.45;;
11590;SDS011;5851;54.050;9.974;2024-01-15T12:35:08;3.88;;;1.83;;
11590;SDS011;5851;54.050;9.974;2024-01-15T12:37:37;7.68;;;3.30;;
11590;SDS011;5851;54.050;9.974;2024-01-15T12:40:05;14.27;;;7.63;;
11590;SDS011;5851;54.050;9.974;2024-01-15T12:42:35;4.63;;;2.30;;
11590;SDS011;5851;54.050;9.974;2024-01-15T12:45:12;3.85;;;2.03;;
11590;SDS011;5851;54.050;9.974;2024-01-15T12:47:54;5.80;;;2.88;;
11590;SDS011;5851;54.050;9.974;2024-01-15T12:50:25;2.93;;;1.70;;
11590;SDS011;5851;54.050;9.974;2024-01-15T12:52:52;11.50;;;6.10;;
11590;SDS011;5851;54.050;9.974;2024-01-15T12:55:19;4.97;;;2.80;;
11590;SDS011;5851;54.050;9.974;2024-01-15T12:57:46;3.95;;;2.50;;
11590;SDS011;5851;54.050;9.974;2024-01-15T13:00:15;3.95;;;1.75;;
11590;SDS011;5851;54.050;9.974;2024-01-15T13:02:42;3.55;;;2.40;;
11590;SDS011;5851;54.050;9.974;2024-01-15T13:05:09;5.15;;;2.28;;
11590;SDS011;5851;54.050;9.974;2024-01-15T13:07:38;3.88;;;2.00;;
11590;SDS011;5851;54.050;9.974;2024-01-15T13:10:06;4.47;;;1.80;;
11590;SDS011;5851;54.050;9.974;2024-01-15T13:12:34;3.75;;;2.20;;
11590;SDS011;5851;54.050;9.974;2024-01-15T13:15:02;4.50;;;2.40;;
11590;SDS011;5851;54.050;9.974;2024-01-15T13:17:30;4.38;;;2.25;;
11590;SDS011;5851;54.050;9.974;2024-01-15T13:19:57;6.70;;;2.60;;
11590;SDS011;5851;54.050;9.974;2024-01-15T13:22:25;4.00;;;2.03;;
11590;SDS011;5851;54.050;9.974;2024-01-15T13:24:58;4.97;;;2.10;;
11590;SDS011;5851;54.050;9.974;2024-01-15T13:27:25;4.30;;;2.10;;
11590;SDS011;5851;54.050;9.974;2024-01-15T13:33:31;4.85;;;2.50;;
11590;SDS011;5851;54.050;9.974;2024-01-15T13:36:01;4.70;;;2.50;;
11590;SDS011;5851;54.050;9.974;2024-01-15T13:38:46;4.82;;;2.65;;
11590;SDS011;5851;54.050;9.974;2024-01-15T13:41:15;4.40;;;2.30;;
11590;SDS011;5851;54.050;9.974;2024-01-15T13:43:44;4.72;;;2.33;;
11590;SDS011;5851;54.050;9.974;2024-01-15T13:46:18;4.00;;;3.08;;
11590;SDS011;5851;54.050;9.974;2024-01-15T13:48:47;5.00;;;2.65;;
11590;SDS011;5851;54.050;9.974;2024-01-15T13:51:14;5.88;;;3.20;;
11590;SDS011;5851;54.050;9.974;2024-01-15T13:53:44;4.47;;;2.35;;
11590;SDS011;5851;54.050;9.974;2024-01-15T13:56:22;4.30;;;2.47;;
11590;SDS011;5851;54.050;9.974;2024-01-15T13:58:50;6.43;;;2.40;;
11590;SDS011;5851;54.050;9.974;2024-01-15T14:01:23;8.73;;;3.90;;
11590;SDS011;5851;54.050;9.974;2024-01-15T14:04:06;4.45;;;2.38;;
11590;SDS011;5851;54.050;9.974;2024-01-15T14:06:53;5.13;;;2.70;;
11590;SDS011;5851;54.050;9.974;2024-01-15T14:09:30;4.07;;;2.40;;
11590;SDS011;5851;54.050;9.974;2024-01-15T14:12:33;3.47;;;2.30;;
11590;SDS011;5851;54.050;9.974;2024-01-15T14:18:03;4.65;;;2.50;;
11590;SDS011;5851;54.050;9.974;2024-01-15T14:20:32;4.93;;;2.37;;
11590;SDS011;5851;54.050;9.974;2024-01-15T14:22:59;3.92;;;2.30;;
11590;SDS011;5851;54.050;9.974;2024-01-15T14:25:26;5.25;;;2.30;;
11590;SDS011;5851;54.050;9.974;2024-01-15T14:28:01;7.20;;;3.40;;
11590;SDS011;5851;54.050;9.974;2024-01-15T14:30:29;5.07;;;2.70;;
11590;SDS011;5851;54.050;9.974;2024-01-15T14:32:56;6.57;;;2.72;;
11590;SDS011;5851;54.050;9.974;2024-01-15T14:35:27;4.93;;;2.40;;
11590;SDS011;5851;54.050;9.974;2024-01-15T14:37:55;3.90;;;2.10;;
11590;SDS011;5851;54.050;9.974;2024-01-15T14:40:24;4.90;;;2.72;;
11590;SDS011;5851;54.050;9.974;2024-01-15T14:43:03;6.38;;;2.70;;
11590;SDS011;5851;54.050;9.974;2024-01-15T14:45:39;5.28;;;2.60;;
11590;SDS011;5851;54.050;9.974;2024-01-15T14:48:26;5.22;;;2.55;;
11590;SDS011;5851;54.050;9.974;2024-01-15T14:53:57;5.32;;;2.70;;
11590;SDS011;5851;54.050;9.974;2024-01-15T14:56:40;5.35;;;2.70;;
11590;SDS011;5851;54.050;9.974;2024-01-15T14:59:38;4.85;;;2.40;;
11590;SDS011;5851;54.050;9.974;2024-01-15T15:02:06;3.97;;;2.47;;
11590;SDS011;5851;54.050;9.974;2024-01-15T15:04:43;5.03;;;2.60;;
11590;SDS011;5851;54.050;9.974;2024-01-15T15:07:11;5.50;;;2.70;;
11590;SDS011;5851;54.050;9.974;2024-01-15T15:09:47;4.32;;;2.10;;
11590;SDS011;5851;54.050;9.974;2024-01-15T15:12:17;5.80;;;2.50;;
11590;SDS011;5851;54.050;9.974;2024-01-15T15:14:46;6.10;;;2.28;;
11590;SDS011;5851;54.050;9.974;2024-01-15T15:17:22;4.80;;;2.30;;